Time;durP1;ratioP1;P1;durP2;ratioP2;P2;SDS_P1;SDS_P2;PMS_P1;PMS_P2;Temp;Humidity;BMP_temperature;BMP_pressure;BME280_temperature;BME280_humidity;BME280_pressure;Samples;Min_cycle;Max_cycle;Signal;HPM_P1;HPM_P2
2023/09/02 00:01:14;;;;;;;7.93;2.15;;;;;;;;;;5021267;28;20045;-60
2023/09/02 00:04:54;;;;;;;7.57;1.92;;;;;;;;;;5019988;28;20052;-63
2023/09/02 00:08:35;;;;;;;10.02;1.90;;;;;;;;;;5018709;28;20770;-61
2023/09/02 00:12:15;;;;;;;10.52;2.53;;;;;;;;;;5019250;28;20063;-65
2023/09/02 00:15:55;;;;;;;9.15;2.38;;;;;;;;;;5020996;28;20140;-61
2023/09/02 00:19:37;;;;;;;7.07;1.65;;;;;;;;;;5020419;28;20103;-64
2023/09/02 00:23:16;;;;;;;10.07;2.15;;;;;;;;;;5019106;28;20148;-61
2023/09/02 00:26:56;;;;;;;7.32;2.00;;;;;;;;;;5015608;28;20068;-61
2023/09/02 00:30:36;;;;;;;9.07;2.17;;;;;;;;;;5017557;28;20451;-60
2023/09/02 00:34:17;;;;;;;10.75;2.17;;;;;;;;;;5017538;28;20050;-61
2023/09/02 00:37:57;;;;;;;8.45;2.10;;;;;;;;;;5025686;28;20175;-63
2023/09/02 00:41:38;;;;;;;5.70;1.60;;;;;;;;;;5022575;28;20046;-61
2023/09/02 00:45:21;;;;;;;11.27;1.92;;;;;;;;;;5024807;28;20543;-63
2023/09/02 00:48:59;;;;;;;10.98;2.22;;;;;;;;;;5023919;28;20053;-60
2023/09/02 00:52:41;;;;;;;11.32;2.28;;;;;;;;;;5025260;28;20053;-62
2023/09/02 00:56:21;;;;;;;9.50;2.42;;;;;;;;;;5025280;28;20049;-61
2023/09/02 01:00:05;;;;;;;6.85;1.85;;;;;;;;;;5024692;28;20080;-61
2023/09/02 01:03:43;;;;;;;10.60;2.30;;;;;;;;;;5025743;28;20043;-62
2023/09/02 01:07:23;;;;;;;6.18;1.85;;;;;;;;;;5026202;28;21179;-60
2023/09/02 01:11:03;;;;;;;6.45;1.73;;;;;;;;;;5027808;28;20041;-61
2023/09/02 01:14:44;;;;;;;6.20;1.90;;;;;;;;;;5024085;28;20284;-61
2023/09/02 01:18:24;;;;;;;9.55;2.38;;;;;;;;;;5025782;28;20060;-64
2023/09/02 01:22:15;;;;;;;12.82;2.30;;;;;;;;;;5022508;28;20713;-61
2023/09/02 01:26:06;;;;;;;9.20;2.50;;;;;;;;;;4922383;29;20070;-62
2023/09/02 01:29:12;;;;;;;13.07;2.75;;;;;;;;;;4921454;29;20052;-61
2023/09/02 01:31:39;;;;;;;8.35;2.00;;;;;;;;;;4904583;29;20063;-62
2023/09/02 01:34:07;;;;;;;7.38;2.15;;;;;;;;;;4923874;29;20047;-61
2023/09/02 01:36:35;;;;;;;7.88;2.05;;;;;;;;;;4921062;29;20075;-62
2023/09/02 01:39:02;;;;;;;7.72;2.05;;;;;;;;;;4921444;29;20052;-61
2023/09/02 01:41:29;;;;;;;8.35;2.42;;;;;;;;;;4921370;29;20051;-62
2023/09/02 01:43:57;;;;;;;7.93;2.28;;;;;;;;;;4923231;29;20635;-62
2023/09/02 01:46:24;;;;;;;9.15;2.20;;;;;;;;;;4919393;29;20066;-61
2023/09/02 01:48:50;;;;;;;10.02;2.10;;;;;;;;;;4918573;29;20051;-61
2023/09/02 01:51:20;;;;;;;9.27;1.90;;;;;;;;;;4919769;29;20583;-61
2023/09/02 01:53:46;;;;;;;7.90;2.00;;;;;;;;;;4919657;29;20567;-60
2023/09/02 01:56:12;;;;;;;6.47;2.00;;;;;;;;;;4918465;29;20087;-61
2023/09/02 01:58:38;;;;;;;10.35;2.28;;;;;;;;;;4921038;29;20067;-63
2023/09/02 02:01:04;;;;;;;7.45;2.10;;;;;;;;;;5002712;28;20054;-61
2023/09/02 02:03:37;;;;;;;9.35;1.95;;;;;;;;;;5023625;28;20049;-61
2023/09/02 02:06:07;;;;;;;11.50;2.08;;;;;;;;;;5021344;28;20056;-61
2023/09/02 02:08:44;;;;;;;7.72;1.95;;;;;;;;;;5021944;28;20056;-61
2023/09/02 02:11:11;;;;;;;8.82;2.03;;;;;;;;;;5020708;28;20057;-63
2023/09/02 02:13:38;;;;;;;7.15;1.67;;;;;;;;;;5020696;28;20509;-62
2023/09/02 02:16:04;;;;;;;8.88;2.13;;;;;;;;;;5004058;28;20045;-61
2023/09/02 02:18:31;;;;;;;7.53;2.45;;;;;;;;;;5024800;28;20095;-60
2023/09/02 02:21:04;;;;;;;10.85;1.92;;;;;;;;;;5022062;28;20053;-59
2023/09/02 02:23:30;;;;;;;5.15;1.90;;;;;;;;;;5024164;28;20045;-61
2023/09/02 02:26:04;;;;;;;7.88;1.75;;;;;;;;;;5023864;28;20049;-60
2023/09/02 02:28:30;;;;;;;9.43;1.88;;;;;;;;;;5021755;28;20056;-62
2023/09/02 02:30:58;;;;;;;12.93;2.35;;;;;;;;;;5024088;28;20050;-62
2023/09/02 02:33:24;;;;;;;15.82;2.20;;;;;;;;;;5024283;28;20057;-61
2023/09/02 02:35:51;;;;;;;11.80;2.05;;;;;;;;;;5004159;28;20097;-62
2023/09/02 02:38:18;;;;;;;9.93;1.65;;;;;;;;;;5023239;28;20440;-61
2023/09/02 02:40:44;;;;;;;8.18;2.00;;;;;;;;;;5020661;28;20049;-60
2023/09/02 02:43:09;;;;;;;10.20;2.00;;;;;;;;;;5021398;28;20483;-59
2023/09/02 02:45:35;;;;;;;6.47;1.55;;;;;;;;;;5003067;28;20061;-60
2023/09/02 02:48:02;;;;;;;11.88;2.00;;;;;;;;;;5022160;28;20428;-60
2023/09/02 02:50:28;;;;;;;10.43;1.67;;;;;;;;;;5022118;28;20053;-60
2023/09/02 02:52:54;;;;;;;6.43;1.92;;;;;;;;;;5023443;28;20065;-60
2023/09/02 02:55:20;;;;;;;6.50;1.70;;;;;;;;;;5022000;28;20525;-62
2023/09/02 02:57:47;;;;;;;10.07;1.60;;;;;;;;;;5020052;28;20338;-62
2023/09/02 03:00:14;;;;;;;8.07;1.70;;;;;;;;;;5022013;28;20057;-61
2023/09/02 03:02:40;;;;;;;7.65;1.80;;;;;;;;;;5021402;28;20061;-61
2023/09/02 03:05:08;;;;;;;9.80;1.83;;;;;;;;;;5020581;28;20827;-61
2023/09/02 03:07:34;;;;;;;10.98;1.90;;;;;;;;;;5021778;28;20496;-60
2023/09/02 03:10:00;;;;;;;8.98;2.28;;;;;;;;;;5022963;28;20717;-61
2023/09/02 03:12:26;;;;;;;9.65;1.95;;;;;;;;;;5019576;28;20054;-60
2023/09/02 03:14:52;;;;;;;9.77;2.40;;;;;;;;;;5021557;28;20056;-62
2023/09/02 03:17:20;;;;;;;10.18;2.10;;;;;;;;;;5021207;28;20061;-61
2023/09/02 03:19:48;;;;;;;8.20;1.95;;;;;;;;;;5021383;28;20056;-64
2023/09/02 03:22:14;;;;;;;5.78;1.83;;;;;;;;;;5019545;28;20061;-61
2023/09/02 03:24:41;;;;;;;6.60;1.85;;;;;;;;;;5022190;28;20424;-61
2023/09/02 03:27:07;;;;;;;6.63;1.95;;;;;;;;;;5020664;28;20072;-59
2023/09/02 03:29:34;;;;;;;8.65;2.00;;;;;;;;;;5018938;28;20128;-62
2023/09/02 03:32:00;;;;;;;9.63;2.00;;;;;;;;;;5021465;28;20416;-61
2023/09/02 03:34:27;;;;;;;8.38;1.92;;;;;;;;;;5002511;28;20053;-62
2023/09/02 03:36:52;;;;;;;6.82;1.70;;;;;;;;;;5021250;28;20052;-61
2023/09/02 03:39:18;;;;;;;9.05;1.85;;;;;;;;;;5021628;28;20053;-61
2023/09/02 03:41:45;;;;;;;12.20;2.33;;;;;;;;;;5020239;28;20059;-62
2023/09/02 03:44:12;;;;;;;10.50;1.90;;;;;;;;;;5018843;28;20061;-69
2023/09/02 03:46:38;;;;;;;10.50;2.55;;;;;;;;;;5001842;28;20120;-62
2023/09/02 03:49:04;;;;;;;6.97;2.25;;;;;;;;;;5021232;28;20052;-61
2023/09/02 03:51:30;;;;;;;7.18;1.80;;;;;;;;;;5019850;28;20041;-61
2023/09/02 03:53:56;;;;;;;10.32;2.00;;;;;;;;;;5004084;28;20057;-61
2023/09/02 03:56:21;;;;;;;10.45;1.63;;;;;;;;;;5021266;28;20053;-60
2023/09/02 03:58:48;;;;;;;6.63;2.08;;;;;;;;;;5021113;28;20087;-61
2023/09/02 04:01:13;;;;;;;6.18;1.77;;;;;;;;;;5016241;28;20088;-60
2023/09/02 04:03:40;;;;;;;9.30;2.30;;;;;;;;;;5015124;28;20154;-62
2023/09/02 04:06:06;;;;;;;9.43;2.20;;;;;;;;;;5019350;28;20045;-62
2023/09/02 04:08:34;;;;;;;4.35;1.63;;;;;;;;;;5000936;28;20055;-60
2023/09/02 04:11:02;;;;;;;6.65;1.90;;;;;;;;;;5016542;28;20084;-62
2023/09/02 04:13:31;;;;;;;6.03;2.10;;;;;;;;;;5018920;28;20049;-61
2023/09/02 04:16:03;;;;;;;7.57;2.42;;;;;;;;;;5013576;28;20103;-61
2023/09/02 04:18:32;;;;;;;11.23;2.38;;;;;;;;;;5013277;28;20465;-60
2023/09/02 04:21:03;;;;;;;9.32;2.00;;;;;;;;;;5016334;28;20045;-61
2023/09/02 04:23:30;;;;;;;7.68;2.28;;;;;;;;;;5016058;28;20053;-61
2023/09/02 04:25:58;;;;;;;10.13;2.00;;;;;;;;;;5018270;28;20053;-60
2023/09/02 04:28:24;;;;;;;10.45;2.10;;;;;;;;;;4999816;28;20053;-62
2023/09/02 04:30:53;;;;;;;13.45;2.20;;;;;;;;;;5017544;28;20495;-63
2023/09/02 04:33:22;;;;;;;7.25;2.00;;;;;;;;;;5014941;28;20042;-61
2023/09/02 04:35:48;;;;;;;7.40;2.10;;;;;;;;;;5014178;28;20119;-61
2023/09/02 04:38:16;;;;;;;8.27;1.88;;;;;;;;;;5014002;28;20062;-61
2023/09/02 04:40:44;;;;;;;11.93;1.98;;;;;;;;;;5014651;28;20172;-61
2023/09/02 04:43:12;;;;;;;8.77;2.08;;;;;;;;;;5013490;28;20524;-61
2023/09/02 04:45:39;;;;;;;9.93;2.22;;;;;;;;;;5013331;28;20092;-61
2023/09/02 04:48:07;;;;;;;9.02;2.13;;;;;;;;;;5014119;28;20080;-60
2023/09/02 04:50:34;;;;;;;8.48;2.30;;;;;;;;;;5013120;28;20108;-60
2023/09/02 04:53:01;;;;;;;7.53;1.92;;;;;;;;;;5015452;28;20405;-62
2023/09/02 04:55:28;;;;;;;6.53;2.00;;;;;;;;;;5014308;28;20049;-62
2023/09/02 04:57:56;;;;;;;7.75;2.00;;;;;;;;;;5021184;28;20491;-63
2023/09/02 05:00:29;;;;;;;12.95;2.30;;;;;;;;;;5022291;28;20160;-63
2023/09/02 05:02:55;;;;;;;13.82;2.53;;;;;;;;;;5018528;28;20107;-61
2023/09/02 05:05:22;;;;;;;9.93;2.25;;;;;;;;;;5018674;28;20054;-60
2023/09/02 05:07:49;;;;;;;9.57;2.10;;;;;;;;;;5018451;28;20053;-61
2023/09/02 05:10:16;;;;;;;8.75;2.38;;;;;;;;;;5019083;28;20088;-62
2023/09/02 05:12:42;;;;;;;6.03;1.75;;;;;;;;;;5016136;28;20674;-60
2023/09/02 05:15:09;;;;;;;7.70;1.92;;;;;;;;;;5019267;28;20595;-61
2023/09/02 05:17:36;;;;;;;7.50;2.00;;;;;;;;;;5020592;28;20164;-62
2023/09/02 05:20:05;;;;;;;10.52;2.20;;;;;;;;;;5019150;28;20478;-61
2023/09/02 05:22:32;;;;;;;7.00;2.05;;;;;;;;;;5024654;28;20052;-61
2023/09/02 05:24:58;;;;;;;8.60;2.03;;;;;;;;;;5022899;28;20053;-61
2023/09/02 05:27:25;;;;;;;8.32;2.10;;;;;;;;;;5019722;28;20057;-60
2023/09/02 05:29:51;;;;;;;7.93;2.05;;;;;;;;;;5022063;28;20547;-61
2023/09/02 05:32:19;;;;;;;5.72;1.90;;;;;;;;;;5020274;28;20478;-61
2023/09/02 05:34:45;;;;;;;8.88;2.10;;;;;;;;;;5023321;28;20089;-62
2023/09/02 05:37:11;;;;;;;10.48;2.10;;;;;;;;;;5020458;28;20405;-62
2023/09/02 05:39:37;;;;;;;19.45;2.40;;;;;;;;;;5021943;28;20056;-61
2023/09/02 05:42:06;;;;;;;8.07;2.67;;;;;;;;;;5018517;28;20061;-61
2023/09/02 05:44:34;;;;;;;9.15;2.20;;;;;;;;;;5021608;28;20412;-61
2023/09/02 05:47:00;;;;;;;8.68;2.00;;;;;;;;;;5020667;28;20054;-66
2023/09/02 05:49:26;;;;;;;9.98;2.38;;;;;;;;;;5023059;28;20049;-60
2023/09/02 05:51:53;;;;;;;12.07;2.55;;;;;;;;;;5020043;28;20053;-61
2023/09/02 05:54:19;;;;;;;5.18;1.70;;;;;;;;;;5019315;28;20421;-60
2023/09/02 05:56:48;;;;;;;9.25;2.53;;;;;;;;;;5020447;28;20449;-60
2023/09/02 05:59:14;;;;;;;8.27;2.40;;;;;;;;;;5021255;28;20053;-62
2023/09/02 06:01:42;;;;;;;6.50;2.42;;;;;;;;;;5020836;28;20057;-62
2023/09/02 06:04:08;;;;;;;6.95;2.20;;;;;;;;;;5015802;28;20080;-61
2023/09/02 06:06:35;;;;;;;6.97;2.38;;;;;;;;;;5023439;28;20045;-62
2023/09/02 06:09:01;;;;;;;10.85;3.00;;;;;;;;;;5018393;28;20053;-62
2023/09/02 06:11:30;;;;;;;15.32;3.35;;;;;;;;;;5021396;28;20149;-63
2023/09/02 06:13:56;;;;;;;8.52;2.83;;;;;;;;;;5001428;28;21178;-60
2023/09/02 06:16:22;;;;;;;11.05;2.83;;;;;;;;;;5016924;28;20493;-62
2023/09/02 06:18:48;;;;;;;11.98;3.22;;;;;;;;;;5021461;28;20111;-62
2023/09/02 06:21:14;;;;;;;12.68;3.03;;;;;;;;;;5023149;28;20080;-61
2023/09/02 06:23:45;;;;;;;9.32;2.72;;;;;;;;;;5021251;28;20123;-60
2023/09/02 06:26:12;;;;;;;12.70;2.40;;;;;;;;;;5019503;28;20069;-61
2023/09/02 06:28:39;;;;;;;8.57;2.58;;;;;;;;;;5018084;28;20046;-61
2023/09/02 06:31:08;;;;;;;6.30;2.38;;;;;;;;;;5023317;28;20404;-60
2023/09/02 06:33:36;;;;;;;10.93;2.55;;;;;;;;;;5018191;28;20140;-59
2023/09/02 06:36:12;;;;;;;10.90;2.65;;;;;;;;;;5018858;28;20092;-60
2023/09/02 06:38:38;;;;;;;11.48;2.55;;;;;;;;;;5019815;28;20037;-62
2023/09/02 06:41:13;;;;;;;13.48;3.30;;;;;;;;;;5022898;28;20052;-61
2023/09/02 06:43:49;;;;;;;10.50;2.42;;;;;;;;;;5020266;28;20509;-61
2023/09/02 06:46:17;;;;;;;9.13;2.65;;;;;;;;;;5018923;28;20061;-62
2023/09/02 06:48:44;;;;;;;14.00;2.88;;;;;;;;;;5017367;28;20061;-63
2023/09/02 06:51:10;;;;;;;10.07;2.67;;;;;;;;;;5018770;28;20037;-61
2023/09/02 06:53:36;;;;;;;12.85;3.00;;;;;;;;;;5021603;28;21501;-64
2023/09/02 06:56:06;;;;;;;9.45;2.85;;;;;;;;;;5022290;28;20195;-64
2023/09/02 06:58:32;;;;;;;10.48;2.55;;;;;;;;;;5018644;28;20054;-62
2023/09/02 07:01:00;;;;;;;9.10;2.53;;;;;;;;;;5020356;28;20247;-64
2023/09/02 07:03:25;;;;;;;9.80;2.42;;;;;;;;;;5023034;28;20134;-61
2023/09/02 07:05:51;;;;;;;6.25;2.60;;;;;;;;;;5022589;28;20121;-62
2023/09/02 07:08:17;;;;;;;9.15;2.60;;;;;;;;;;5020551;28;20144;-62
2023/09/02 07:10:44;;;;;;;8.48;3.50;;;;;;;;;;5022414;28;20508;-64
2023/09/02 07:13:11;;;;;;;12.20;2.90;;;;;;;;;;5023501;28;20099;-62
2023/09/02 07:15:37;;;;;;;13.05;2.70;;;;;;;;;;5020212;28;20067;-63
2023/09/02 07:18:03;;;;;;;8.00;2.60;;;;;;;;;;5021564;28;20041;-62
2023/09/02 07:20:29;;;;;;;7.43;2.20;;;;;;;;;;5023206;28;20471;-63
2023/09/02 07:22:55;;;;;;;8.80;2.30;;;;;;;;;;5007878;28;20054;-63
2023/09/02 07:25:22;;;;;;;8.98;2.55;;;;;;;;;;5024925;28;20053;-62
2023/09/02 07:27:48;;;;;;;9.60;2.47;;;;;;;;;;5022848;28;20061;-60
2023/09/02 07:30:14;;;;;;;10.20;2.90;;;;;;;;;;5019526;28;20050;-62
2023/09/02 07:32:40;;;;;;;8.45;2.28;;;;;;;;;;5016594;28;20053;-61
2023/09/02 07:35:07;;;;;;;9.60;2.60;;;;;;;;;;5021727;28;20072;-63
2023/09/02 07:37:33;;;;;;;11.75;2.75;;;;;;;;;;5020270;28;20127;-60
2023/09/02 07:39:59;;;;;;;7.90;2.40;;;;;;;;;;5021106;28;20057;-63
2023/09/02 07:42:25;;;;;;;9.07;2.88;;;;;;;;;;5026066;28;20042;-62
2023/09/02 07:44:51;;;;;;;6.05;2.33;;;;;;;;;;5020197;28;20468;-68
2023/09/02 07:47:17;;;;;;;10.82;2.65;;;;;;;;;;5013114;28;20487;-65
2023/09/02 07:49:43;;;;;;;6.70;2.17;;;;;;;;;;5021488;28;20497;-63
2023/09/02 07:52:09;;;;;;;7.72;2.50;;;;;;;;;;5023765;28;20127;-64
2023/09/02 07:54:35;;;;;;;11.75;3.20;;;;;;;;;;5024922;28;20068;-64
2023/09/02 07:57:03;;;;;;;12.20;3.75;;;;;;;;;;5022682;28;20100;-69
2023/09/02 07:59:29;;;;;;;24.05;7.47;;;;;;;;;;5024075;28;20045;-65
2023/09/02 08:01:55;;;;;;;11.38;3.15;;;;;;;;;;5020677;28;20115;-68
2023/09/02 08:04:21;;;;;;;8.50;2.30;;;;;;;;;;5021218;28;20068;-65
2023/09/02 08:06:47;;;;;;;10.05;2.95;;;;;;;;;;5025735;28;20057;-64
2023/09/02 08:09:13;;;;;;;6.82;2.90;;;;;;;;;;5000307;28;20203;-66
2023/09/02 08:11:38;;;;;;;10.05;3.20;;;;;;;;;;5023700;28;20056;-65
2023/09/02 08:14:04;;;;;;;11.75;3.45;;;;;;;;;;5018380;28;20045;-66
2023/09/02 08:16:30;;;;;;;12.00;3.10;;;;;;;;;;5027189;28;20494;-67
2023/09/02 08:18:56;;;;;;;10.32;3.08;;;;;;;;;;5020943;28;20551;-66
2023/09/02 08:21:22;;;;;;;10.65;3.40;;;;;;;;;;5026899;28;20515;-65
2023/09/02 08:23:49;;;;;;;7.50;2.38;;;;;;;;;;5027688;28;20068;-64
2023/09/02 08:26:15;;;;;;;11.00;2.60;;;;;;;;;;5027398;28;20529;-65
2023/09/02 08:29:21;;;;;;;9.10;2.63;;;;;;;;;;5012014;28;20046;-64
2023/09/02 08:33:02;;;;;;;10.48;2.47;;;;;;;;;;5022992;28;20102;-66
2023/09/02 08:36:42;;;;;;;10.10;2.67;;;;;;;;;;5020720;28;20104;-66
2023/09/02 08:40:22;;;;;;;15.68;2.85;;;;;;;;;;5014590;28;20056;-63
2023/09/02 08:44:03;;;;;;;18.95;3.58;;;;;;;;;;5012722;28;20122;-68
2023/09/02 08:47:43;;;;;;;15.73;3.30;;;;;;;;;;5004623;28;20511;-65
2023/09/02 08:51:24;;;;;;;10.95;3.20;;;;;;;;;;5005342;28;20952;-64
2023/09/02 08:55:04;;;;;;;10.18;2.80;;;;;;;;;;5000912;28;20092;-65
2023/09/02 08:58:44;;;;;;;5.15;2.10;;;;;;;;;;5008258;28;20194;-64
2023/09/02 09:02:26;;;;;;;8.18;2.40;;;;;;;;;;5004364;28;20058;-65
2023/09/02 09:06:06;;;;;;;8.43;2.40;;;;;;;;;;5009865;28;20135;-65
2023/09/02 09:09:47;;;;;;;8.48;2.75;;;;;;;;;;5011062;28;20046;-65
2023/09/02 09:13:27;;;;;;;8.13;2.95;;;;;;;;;;5004680;28;20395;-65
2023/09/02 09:17:10;;;;;;;10.38;3.22;;;;;;;;;;5012221;28;20050;-64
2023/09/02 09:20:50;;;;;;;11.23;4.00;;;;;;;;;;5005967;28;20081;-68
2023/09/02 09:24:34;;;;;;;9.27;3.10;;;;;;;;;;5001874;28;20049;-65
2023/09/02 09:28:12;;;;;;;9.18;3.28;;;;;;;;;;5009341;28;20510;-66
2023/09/02 09:31:55;;;;;;;9.38;3.50;;;;;;;;;;5010205;28;20046;-66
2023/09/02 09:35:45;;;;;;;12.40;3.58;;;;;;;;;;5007027;28;20068;-65
2023/09/02 09:39:25;;;;;;;12.98;3.70;;;;;;;;;;4998782;28;20057;-68
2023/09/02 09:43:16;;;;;;;9.50;3.30;;;;;;;;;;5007832;28;20084;-64
2023/09/02 09:46:56;;;;;;;9.13;3.40;;;;;;;;;;5000425;28;20049;-65
2023/09/02 09:50:52;;;;;;;8.85;2.90;;;;;;;;;;5001429;28;20042;-65
2023/09/02 09:54:32;;;;;;;10.63;3.60;;;;;;;;;;5003101;28;20115;-65
2023/09/02 09:58:12;;;;;;;18.60;3.50;;;;;;;;;;5005935;28;20136;-65
2023/09/02 10:01:53;;;;;;;11.50;3.53;;;;;;;;;;4999736;28;20049;-65
2023/09/02 10:05:33;;;;;;;13.80;3.97;;;;;;;;;;5006837;28;20076;-66
2023/09/02 10:09:29;;;;;;;10.90;4.13;;;;;;;;;;5001455;28;20498;-65
2023/09/02 10:12:50;;;;;;;;;;;;;;;;;;4998645;28;20491;-65
2023/09/02 10:16:30;;;;;;;11.43;2.30;;;;;;;;;;4997041;28;19929;-65
2023/09/02 10:20:12;;;;;;;18.52;3.05;;;;;;;;;;4996039;28;20081;-67
2023/09/02 10:23:55;;;;;;;18.50;3.58;;;;;;;;;;5003825;28;20053;-70
2023/09/02 10:27:38;;;;;;;15.48;3.30;;;;;;;;;;5005458;28;20074;-67
2023/09/02 10:31:00;;;;;;;6.65;1.77;;;;;;;;;;5006869;28;20180;-68
2023/09/02 10:34:20;;;;;;;6.88;1.80;;;;;;;;;;5001389;28;20421;-69
2023/09/02 10:37:54;;;;;;;7.70;2.08;;;;;;;;;;4996889;28;20056;-70
2023/09/02 10:41:34;;;;;;;7.78;2.40;;;;;;;;;;4998070;28;20069;-70
2023/09/02 10:45:15;;;;;;;5.35;2.00;;;;;;;;;;5013211;28;20410;-72
2023/09/02 10:48:56;;;;;;;10.38;2.45;;;;;;;;;;5026274;28;20461;-71
2023/09/02 10:52:37;;;;;;;11.55;2.25;;;;;;;;;;5022253;28;20065;-72
2023/09/02 10:56:16;;;;;;;6.65;2.20;;;;;;;;;;5028100;28;20048;-71
2023/09/02 11:00:07;;;;;;;8.85;3.65;;;;;;;;;;5019749;28;20111;-70
2023/09/02 11:04:02;;;;;;;7.85;2.00;;;;;;;;;;5022045;28;20072;-69
2023/09/02 11:07:19;;;;;;;6.97;1.80;;;;;;;;;;5022468;28;20080;-69
2023/09/02 11:11:12;;;;;;;4.20;1.50;;;;;;;;;;5024176;28;20068;-69
2023/09/02 11:14:57;;;;;;;6.47;2.10;;;;;;;;;;5024284;28;20553;-70
2023/09/02 11:18:45;;;;;;;3.40;1.70;;;;;;;;;;5021832;28;20136;-69
2023/09/02 11:22:25;;;;;;;6.15;2.03;;;;;;;;;;5016907;28;20100;-68
2023/09/02 11:25:46;;;;;;;5.35;2.00;;;;;;;;;;5017870;28;20099;-68
2023/09/02 11:29:45;;;;;;;8.13;2.35;;;;;;;;;;5017448;28;20209;-66
2023/09/02 11:33:25;;;;;;;8.05;2.33;;;;;;;;;;5024256;28;20057;-68
2023/09/02 11:37:10;;;;;;;2.63;1.30;;;;;;;;;;5025809;28;20042;-66
2023/09/02 11:40:58;;;;;;;2.90;1.90;;;;;;;;;;5026212;28;20046;-67
2023/09/02 11:44:40;;;;;;;2.67;1.50;;;;;;;;;;5025583;28;20050;-67
2023/09/02 11:48:20;;;;;;;3.42;1.60;;;;;;;;;;5020092;28;20060;-71
2023/09/02 11:52:00;;;;;;;3.78;1.90;;;;;;;;;;5016153;28;20049;-68
2023/09/02 11:55:40;;;;;;;5.80;2.35;;;;;;;;;;5026024;28;20048;-70
2023/09/02 11:59:21;;;;;;;6.35;2.30;;;;;;;;;;5026367;28;20045;-68
2023/09/02 12:03:03;;;;;;;4.38;2.00;;;;;;;;;;5026913;28;20049;-68
2023/09/02 12:06:43;;;;;;;7.30;2.30;;;;;;;;;;5024959;28;20146;-67
2023/09/02 12:10:09;;;;;;;6.85;2.08;;;;;;;;;;5026205;28;20166;-68
2023/09/02 12:13:49;;;;;;;7.70;2.80;;;;;;;;;;5016542;28;20045;-68
2023/09/02 12:17:31;;;;;;;4.97;2.10;;;;;;;;;;5014179;28;20631;-66
2023/09/02 12:21:11;;;;;;;6.40;2.58;;;;;;;;;;5023194;28;20053;-68
2023/09/02 12:24:52;;;;;;;5.88;2.08;;;;;;;;;;5024707;28;20049;-68
2023/09/02 12:28:32;;;;;;;7.88;2.25;;;;;;;;;;5026163;28;20047;-68
2023/09/02 12:32:12;;;;;;;4.35;1.77;;;;;;;;;;5027326;28;20046;-64
2023/09/02 12:35:53;;;;;;;3.05;2.10;;;;;;;;;;5024829;28;20429;-67
2023/09/02 12:39:42;;;;;;;5.20;1.80;;;;;;;;;;5027549;28;20150;-68
2023/09/02 12:43:22;;;;;;;3.40;1.60;;;;;;;;;;5023860;28;20061;-68
2023/09/02 12:47:02;;;;;;;4.60;1.70;;;;;;;;;;5021178;28;20474;-67
2023/09/02 12:50:43;;;;;;;2.60;1.58;;;;;;;;;;5013890;28;20048;-67
2023/09/02 12:54:32;;;;;;;4.65;1.45;;;;;;;;;;5018778;28;20195;-67
2023/09/02 12:58:13;;;;;;;4.63;1.77;;;;;;;;;;5018956;28;20041;-65
2023/09/02 13:01:52;;;;;;;3.50;1.45;;;;;;;;;;5021720;28;20084;-65
2023/09/02 13:05:33;;;;;;;4.05;1.60;;;;;;;;;;5010910;28;20401;-66
2023/09/02 13:09:13;;;;;;;6.75;1.70;;;;;;;;;;5014227;28;20044;-67
2023/09/02 13:12:54;;;;;;;5.97;2.00;;;;;;;;;;5019794;28;20409;-67
2023/09/02 13:16:34;;;;;;;4.82;1.67;;;;;;;;;;5011121;28;20049;-66
2023/09/02 13:20:16;;;;;;;6.63;1.85;;;;;;;;;;5016708;28;20041;-65
2023/09/02 13:23:55;;;;;;;9.48;2.13;;;;;;;;;;5019619;28;20126;-66
2023/09/02 13:27:35;;;;;;;8.77;2.00;;;;;;;;;;5023838;28;20041;-70
2023/09/02 13:31:19;;;;;;;7.97;1.75;;;;;;;;;;5020940;28;20081;-67
2023/09/02 13:35:02;;;;;;;5.93;1.83;;;;;;;;;;5024738;28;20128;-67
2023/09/02 13:38:42;;;;;;;5.03;1.70;;;;;;;;;;4928610;29;20051;-67
2023/09/02 13:42:24;;;;;;;9.43;2.22;;;;;;;;;;4925654;29;20139;-68
2023/09/02 13:46:09;;;;;;;6.82;1.98;;;;;;;;;;4928840;29;20051;-67
2023/09/02 13:49:48;;;;;;;5.68;1.70;;;;;;;;;;4929488;29;20102;-68
2023/09/02 13:53:28;;;;;;;3.58;1.63;;;;;;;;;;4921038;29;20051;-68
2023/09/02 13:57:08;;;;;;;6.72;1.80;;;;;;;;;;4927779;29;20086;-68
2023/09/02 14:00:54;;;;;;;6.50;1.95;;;;;;;;;;4924298;29;20066;-69
2023/09/02 14:04:38;;;;;;;7.18;1.80;;;;;;;;;;4925749;29;20056;-70
2023/09/02 14:08:18;;;;;;;9.85;1.73;;;;;;;;;;4924704;29;20059;-67
2023/09/02 14:11:58;;;;;;;7.85;1.85;;;;;;;;;;4928312;29;20051;-71
2023/09/02 14:15:40;;;;;;;7.25;1.63;;;;;;;;;;4994154;28;20444;-67
2023/09/02 14:19:20;;;;;;;9.15;1.90;;;;;;;;;;5004597;28;20049;-69
2023/09/02 14:23:00;;;;;;;6.43;1.50;;;;;;;;;;4999238;28;20046;-68
2023/09/02 14:26:42;;;;;;;6.03;1.60;;;;;;;;;;5000417;28;20054;-70
2023/09/02 14:30:24;;;;;;;6.43;1.73;;;;;;;;;;5002904;28;20039;-69
2023/09/02 14:34:07;;;;;;;6.15;1.60;;;;;;;;;;5008380;28;20054;-69
2023/09/02 14:37:47;;;;;;;3.65;1.60;;;;;;;;;;4994208;28;20046;-68
2023/09/02 14:41:30;;;;;;;4.63;1.63;;;;;;;;;;5003030;28;20371;-69
2023/09/02 14:45:16;;;;;;;5.22;1.48;;;;;;;;;;5002559;28;20049;-68
2023/09/02 14:48:56;;;;;;;5.65;1.40;;;;;;;;;;5025948;28;20425;-67
2023/09/02 14:52:37;;;;;;;3.80;1.27;;;;;;;;;;5026166;28;20049;-67
2023/09/02 14:56:18;;;;;;;4.45;1.20;;;;;;;;;;5027050;28;20124;-69
2023/09/02 14:59:59;;;;;;;7.63;1.60;;;;;;;;;;5014631;28;20038;-69
2023/09/02 15:03:44;;;;;;;4.63;1.20;;;;;;;;;;5027890;28;20409;-68
2023/09/02 15:07:24;;;;;;;3.28;1.00;;;;;;;;;;5023763;28;20049;-69
2023/09/02 15:11:05;;;;;;;4.00;1.10;;;;;;;;;;5025253;28;20067;-67
2023/09/02 15:14:46;;;;;;;4.32;1.10;;;;;;;;;;5022460;28;20076;-70
2023/09/02 15:18:27;;;;;;;1.63;0.80;;;;;;;;;;5021767;28;20504;-69
2023/09/02 15:22:13;;;;;;;3.35;1.42;;;;;;;;;;5027599;28;20124;-68
2023/09/02 15:25:53;;;;;;;3.17;1.40;;;;;;;;;;5028012;28;20102;-66
2023/09/02 15:29:35;;;;;;;3.03;1.05;;;;;;;;;;5020356;28;20110;-66
2023/09/02 15:33:14;;;;;;;4.05;1.00;;;;;;;;;;5015778;28;20080;-69
2023/09/02 15:36:54;;;;;;;3.75;1.10;;;;;;;;;;5017018;28;20045;-67
2023/09/02 15:40:34;;;;;;;4.60;1.35;;;;;;;;;;5020676;28;20045;-68
2023/09/02 15:44:19;;;;;;;5.43;1.10;;;;;;;;;;5011359;28;20521;-66
2023/09/02 15:47:59;;;;;;;2.92;1.35;;;;;;;;;;5014261;28;20485;-67
2023/09/02 15:51:41;;;;;;;1.80;1.17;;;;;;;;;;5018380;28;20049;-67
2023/09/02 15:55:22;;;;;;;3.67;1.20;;;;;;;;;;5014243;28;20049;-69
2023/09/02 15:59:05;;;;;;;2.05;1.10;;;;;;;;;;5019203;28;20049;-68
2023/09/02 16:02:49;;;;;;;3.03;0.90;;;;;;;;;;5022335;28;20097;-71
2023/09/02 16:06:33;;;;;;;4.18;1.02;;;;;;;;;;5016760;28;20056;-67
2023/09/02 16:10:16;;;;;;;3.05;1.20;;;;;;;;;;5016336;28;20512;-69
2023/09/02 16:13:57;;;;;;;1.92;1.00;;;;;;;;;;5015456;28;20053;-67
2023/09/02 16:17:40;;;;;;;2.60;1.23;;;;;;;;;;5016405;28;20052;-67
2023/09/02 16:21:21;;;;;;;4.43;1.30;;;;;;;;;;5019703;28;20490;-72
2023/09/02 16:25:02;;;;;;;2.17;1.10;;;;;;;;;;5020415;28;20053;-66
2023/09/02 16:28:43;;;;;;;3.25;1.15;;;;;;;;;;5023689;28;20049;-68
2023/09/02 16:32:23;;;;;;;3.22;1.30;;;;;;;;;;5022346;28;20501;-68
2023/09/02 16:36:04;;;;;;;2.22;1.25;;;;;;;;;;5020847;28;20053;-68
2023/09/02 16:39:44;;;;;;;4.15;1.38;;;;;;;;;;5018457;28;20497;-73
2023/09/02 16:43:24;;;;;;;3.22;1.40;;;;;;;;;;5022468;28;20049;-67
2023/09/02 16:47:05;;;;;;;5.82;1.50;;;;;;;;;;5019523;28;20045;-68
2023/09/02 16:50:46;;;;;;;5.45;1.30;;;;;;;;;;5017317;28;20081;-66
2023/09/02 16:54:26;;;;;;;5.40;1.80;;;;;;;;;;5024698;28;20048;-68
2023/09/02 16:58:08;;;;;;;5.43;1.33;;;;;;;;;;5013309;28;20064;-68
2023/09/02 17:01:48;;;;;;;6.72;1.60;;;;;;;;;;5016438;28;20081;-68
2023/09/02 17:05:32;;;;;;;5.95;1.48;;;;;;;;;;5009317;28;20137;-71
2023/09/02 17:09:12;;;;;;;4.65;1.48;;;;;;;;;;5015675;28;20061;-69
2023/09/02 17:12:56;;;;;;;5.40;1.25;;;;;;;;;;5008091;28;20050;-69
2023/09/02 17:16:38;;;;;;;7.15;1.50;;;;;;;;;;5023662;28;20552;-68
2023/09/02 17:20:19;;;;;;;9.13;1.50;;;;;;;;;;5019885;28;20104;-69
2023/09/02 17:23:59;;;;;;;4.85;1.58;;;;;;;;;;5025907;28;20052;-67
2023/09/02 17:27:39;;;;;;;3.40;1.40;;;;;;;;;;5029293;28;20045;-67
2023/09/02 17:31:22;;;;;;;3.40;1.42;;;;;;;;;;5019505;28;20050;-69
2023/09/02 17:35:03;;;;;;;4.80;1.30;;;;;;;;;;5019635;28;20835;-67
2023/09/02 17:38:44;;;;;;;6.68;1.50;;;;;;;;;;5021264;28;20904;-70
2023/09/02 17:42:23;;;;;;;5.35;1.70;;;;;;;;;;5014929;28;20095;-71
2023/09/02 17:46:05;;;;;;;5.93;1.30;;;;;;;;;;5021915;28;20133;-71
2023/09/02 17:49:45;;;;;;;3.35;1.50;;;;;;;;;;5020578;28;20992;-69
2023/09/02 17:53:27;;;;;;;2.63;1.30;;;;;;;;;;5019661;28;20065;-67
2023/09/02 17:57:10;;;;;;;3.80;1.48;;;;;;;;;;5018082;28;20459;-67
2023/09/02 18:00:50;;;;;;;4.20;1.40;;;;;;;;;;5015364;28;20045;-66
2023/09/02 18:04:31;;;;;;;2.88;1.38;;;;;;;;;;5013332;28;20474;-66
2023/09/02 18:08:14;;;;;;;6.10;1.40;;;;;;;;;;5016250;28;20057;-70
2023/09/02 18:11:54;;;;;;;3.25;1.00;;;;;;;;;;5019605;28;20045;-65
2023/09/02 18:15:35;;;;;;;2.85;1.10;;;;;;;;;;5016935;28;20034;-67
2023/09/02 18:19:15;;;;;;;6.55;1.70;;;;;;;;;;5020830;28;20763;-64
2023/09/02 18:22:55;;;;;;;2.17;1.30;;;;;;;;;;5022995;28;20136;-66
2023/09/02 18:26:36;;;;;;;2.03;1.42;;;;;;;;;;5025854;28;20470;-66
2023/09/02 18:30:19;;;;;;;4.05;1.58;;;;;;;;;;5018669;28;20046;-67